Time;durP1;ratioP1;P1;durP2;ratioP2;P2;SDS_P1;SDS_P2;PMS_P1;PMS_P2;Temp;Humidity;BMP_temperature;BMP_pressure;BME280_temperature;BME280_humidity;BME280_pressure;Samples;Min_cycle;Max_cycle;Signal;HPM_P1;HPM_P2
2022/02/23 00:01:40;;;;;;;8.38;4.35;;;;;;;2.69;100.00;99097.89;1794425;79;21032;-60
2022/02/23 00:04:06;;;;;;;7.10;4.05;;;;;;;2.81;100.00;99095.98;1768902;80;21193;-60
2022/02/23 00:06:33;;;;;;;9.00;4.55;;;;;;;2.83;100.00;99096.06;1786261;79;21480;-61
2022/02/23 00:08:59;;;;;;;7.10;4.60;;;;;;;2.81;100.00;99094.64;1760526;80;21090;-60
2022/02/23 00:11:26;;;;;;;8.53;4.22;;;;;;;2.76;100.00;99098.06;1803872;79;21093;-60
2022/02/23 00:13:52;;;;;;;9.53;4.45;;;;;;;2.83;100.00;99099.27;1803144;77;21077;-60
2022/02/23 00:16:19;;;;;;;7.65;4.55;;;;;;;2.85;100.00;99086.40;1777125;80;21098;-61
2022/02/23 00:18:46;;;;;;;6.80;3.75;;;;;;;2.80;100.00;99091.69;1791568;79;21031;-61
2022/02/23 00:21:13;;;;;;;9.20;4.12;;;;;;;2.75;100.00;99095.59;1769471;80;21078;-61
2022/02/23 00:23:40;;;;;;;7.78;4.30;;;;;;;2.65;100.00;99084.64;1790697;79;21008;-60
2022/02/23 00:26:06;;;;;;;;;;;;;;;2.64;100.00;99077.63;1776011;80;21035;-61
2022/02/23 00:28:32;;;;;;;7.47;3.65;;;;;;;2.64;100.00;99073.06;1792752;80;20100;-61
2022/02/23 00:30:59;;;;;;;8.50;3.60;;;;;;;2.48;100.00;99085.34;1790011;80;21066;-60
2022/02/23 00:33:25;;;;;;;6.65;4.25;;;;;;;2.35;100.00;99075.38;1772692;79;21110;-60
2022/02/23 00:35:52;;;;;;;7.95;3.75;;;;;;;2.29;100.00;99083.86;1779073;80;21033;-60
2022/02/23 00:38:18;;;;;;;6.33;3.10;;;;;;;2.32;100.00;99079.35;1787989;80;21055;-60
2022/02/23 00:40:44;;;;;;;7.60;3.10;;;;;;;2.30;100.00;99081.44;1775015;80;21560;-61
2022/02/23 00:43:11;;;;;;;;;;;;;;;2.24;100.00;99084.25;1782813;80;21533;-60
2022/02/23 00:45:38;;;;;;;6.85;3.87;;;;;;;2.17;100.00;99083.02;1769398;80;20413;-61
2022/02/23 00:48:04;;;;;;;;;;;;;;;2.10;100.00;99092.23;1786056;80;21026;-60
2022/02/23 00:50:31;;;;;;;6.15;3.20;;;;;;;2.20;100.00;99093.30;1779583;80;20106;-60
2022/02/23 00:52:58;;;;;;;;;;;;;;;2.27;100.00;99091.83;1774987;80;21153;-60
2022/02/23 00:55:24;;;;;;;5.97;3.55;;;;;;;2.32;100.00;99093.30;1771120;80;20126;-60
2022/02/23 00:57:50;;;;;;;8.18;4.12;;;;;;;2.25;100.00;99104.17;1772611;80;21547;-60
2022/02/23 01:00:17;;;;;;;8.73;4.45;;;;;;;2.26;100.00;99103.13;1778594;79;21062;-61
2022/02/23 01:02:44;;;;;;;8.40;3.70;;;;;;;2.26;100.00;99100.44;1770175;80;21059;-61
2022/02/23 01:05:11;;;;;;;6.70;3.45;;;;;;;2.36;100.00;99105.22;1790327;80;21050;-61
2022/02/23 01:07:37;;;;;;;5.78;3.65;;;;;;;2.50;100.00;99107.95;1789525;79;21039;-60
2022/02/23 01:10:08;;;;;;;7.55;4.10;;;;;;;2.52;100.00;99112.55;1788622;80;21034;-61
2022/02/23 01:12:34;;;;;;;7.12;4.00;;;;;;;2.50;100.00;99120.87;1782798;80;21538;-60
2022/02/23 01:15:01;;;;;;;8.20;4.25;;;;;;;2.56;100.00;99116.41;1785626;80;21065;-60
2022/02/23 01:17:29;;;;;;;8.60;3.92;;;;;;;2.66;100.00;99119.88;1790262;80;21055;-60
2022/02/23 01:19:56;;;;;;;6.85;3.98;;;;;;;2.64;100.00;99122.78;1776711;80;21003;-61
2022/02/23 01:22:22;;;;;;;5.95;3.98;;;;;;;2.61;100.00;99117.06;1793300;79;21918;-61
2022/02/23 01:24:48;;;;;;;7.75;4.30;;;;;;;2.64;100.00;99125.99;1790612;80;21489;-61
2022/02/23 01:27:15;;;;;;;8.80;4.67;;;;;;;2.73;100.00;99134.00;1788384;80;21595;-61
2022/02/23 01:29:41;;;;;;;9.08;4.67;;;;;;;2.73;100.00;99134.00;1774370;80;21557;-61
2022/02/23 01:32:08;;;;;;;7.90;4.28;;;;;;;2.67;100.00;99134.92;1788637;80;21510;-61
2022/02/23 01:34:35;;;;;;;9.83;5.50;;;;;;;2.64;100.00;99137.56;1777029;80;21058;-61
2022/02/23 01:37:02;;;;;;;;;;;;;;;2.68;100.00;99145.97;1791008;79;21062;-60
2022/02/23 01:39:28;;;;;;;12.23;6.60;;;;;;;2.68;100.00;99149.48;1782194;80;20139;-62
2022/02/23 01:41:54;;;;;;;10.50;5.87;;;;;;;2.57;100.00;99150.82;1784387;80;21604;-61
2022/02/23 01:44:21;;;;;;;8.48;5.00;;;;;;;2.63;100.00;99153.91;1778106;80;21600;-61
2022/02/23 01:46:48;;;;;;;8.23;5.20;;;;;;;2.70;100.00;99150.57;1785191;80;21485;-61
2022/02/23 01:49:14;;;;;;;6.40;3.95;;;;;;;2.63;100.00;99161.97;1780255;80;21129;-62
2022/02/23 01:51:40;;;;;;;8.68;4.75;;;;;;;2.63;100.00;99164.66;1772666;80;21038;-61
2022/02/23 01:54:07;;;;;;;8.78;5.20;;;;;;;2.65;100.00;99159.36;1790907;80;21511;-62
2022/02/23 01:56:35;;;;;;;8.63;4.90;;;;;;;2.61;100.00;99171.63;1796093;80;21041;-62
2022/02/23 01:59:02;;;;;;;9.93;5.17;;;;;;;2.59;100.00;99174.27;1777025;80;21025;-61
2022/02/23 02:01:28;;;;;;;9.35;4.97;;;;;;;2.62;100.00;99179.98;1787348;80;20994;-61
2022/02/23 02:03:55;;;;;;;9.33;4.87;;;;;;;2.59;100.00;99179.64;1785477;80;21033;-61
2022/02/23 02:06:21;;;;;;;9.95;4.95;;;;;;;2.60;100.00;99178.56;1778542;80;21057;-61
2022/02/23 02:08:48;;;;;;;10.58;5.55;;;;;;;2.64;100.00;99178.39;1771952;80;21059;-61
2022/02/23 02:11:14;;;;;;;10.78;5.60;;;;;;;2.58;100.00;99188.73;1772294;80;21081;-61
2022/02/23 02:13:40;;;;;;;10.38;5.42;;;;;;;2.56;100.00;99186.27;1790247;77;21057;-62
2022/02/23 02:16:07;;;;;;;9.75;4.53;;;;;;;2.62;100.00;99188.57;1754838;80;21354;-61
2022/02/23 02:18:35;;;;;;;9.60;5.22;;;;;;;2.61;100.00;99185.58;1779433;79;21118;-61
2022/02/23 02:21:01;;;;;;;8.55;4.75;;;;;;;2.55;100.00;99191.34;1802606;79;21920;-61
2022/02/23 02:23:29;;;;;;;7.85;4.22;;;;;;;2.60;100.00;99202.75;1795006;79;21045;-61
2022/02/23 02:25:56;;;;;;;10.28;4.58;;;;;;;2.63;100.00;99208.47;1773089;80;21105;-60
2022/02/23 02:28:22;;;;;;;9.30;4.72;;;;;;;2.58;100.00;99207.03;1786069;79;21572;-62
2022/02/23 02:30:48;;;;;;;9.40;4.45;;;;;;;2.57;100.00;99214.79;1783933;79;21552;-61
2022/02/23 02:33:15;;;;;;;7.00;4.20;;;;;;;2.59;100.00;99214.02;1765929;80;21534;-61
2022/02/23 02:35:41;;;;;;;9.60;5.03;;;;;;;2.57;100.00;99216.66;1776829;80;21090;-61
2022/02/23 02:38:08;;;;;;;9.23;4.83;;;;;;;2.46;100.00;99222.30;1757736;80;21052;-62
2022/02/23 02:40:34;;;;;;;;;;;;;;;2.44;100.00;99224.42;1785390;80;21023;-61
2022/02/23 02:43:07;;;;;;;8.08;4.85;;;;;;;2.46;100.00;99230.37;1788735;80;20108;-62
2022/02/23 02:45:33;;;;;;;7.83;4.30;;;;;;;2.32;100.00;99228.42;1783148;80;21538;-62
2022/02/23 02:48:00;;;;;;;7.22;3.80;;;;;;;2.30;100.00;99233.19;1766250;80;21145;-62
2022/02/23 02:50:27;;;;;;;6.75;3.52;;;;;;;2.33;100.00;99239.98;1786218;80;21067;-62
2022/02/23 02:52:53;;;;;;;;;;;;;;;2.29;100.00;99243.66;1790776;80;21090;-61
2022/02/23 02:55:20;;;;;;;6.83;2.52;;;;;;;2.20;100.00;99242.86;1783250;80;20133;-62
2022/02/23 02:57:46;;;;;;;;;;;;;;;2.20;100.00;99245.54;1779750;80;21066;-62
2022/02/23 03:00:15;;;;;;;5.53;1.87;;;;;;;2.15;100.00;99242.74;1787894;80;20144;-62
2022/02/23 03:02:41;;;;;;;4.85;2.55;;;;;;;1.99;100.00;99249.56;1770974;80;21038;-62
2022/02/23 03:05:09;;;;;;;4.00;1.55;;;;;;;1.95;100.00;99251.89;1787551;80;20994;-62
2022/02/23 03:07:35;;;;;;;4.08;1.77;;;;;;;1.99;100.00;99246.87;1786664;80;21514;-62
2022/02/23 03:10:03;;;;;;;5.00;2.00;;;;;;;1.92;100.00;99237.58;1759364;81;21470;-62
2022/02/23 03:12:30;;;;;;;4.42;1.72;;;;;;;1.83;100.00;99241.64;1766890;81;21075;-61
2022/02/23 03:14:56;;;;;;;4.78;1.37;;;;;;;1.79;100.00;99245.00;1759420;81;21008;-62
2022/02/23 03:17:22;;;;;;;6.62;2.65;;;;;;;1.70;100.00;99245.03;1767626;80;21010;-61
2022/02/23 03:19:49;;;;;;;7.12;3.00;;;;;;;1.62;100.00;99251.52;1760297;81;21006;-61
2022/02/23 03:22:16;;;;;;;7.67;3.22;;;;;;;1.53;100.00;99257.40;1764767;80;21049;-61
2022/02/23 03:24:42;;;;;;;8.33;3.00;;;;;;;1.56;100.00;99262.34;1766967;80;21002;-61
2022/02/23 03:27:09;;;;;;;3.67;1.82;;;;;;;1.53;100.00;99262.77;1771623;80;20994;-62
2022/02/23 03:29:35;;;;;;;3.58;1.90;;;;;;;1.42;100.00;99265.16;1786961;79;21419;-62
2022/02/23 03:32:03;;;;;;;3.25;1.50;;;;;;;1.37;100.00;99261.00;1789693;80;21068;-61
2022/02/23 03:34:29;;;;;;;3.47;1.40;;;;;;;1.28;100.00;99265.01;1778912;79;21057;-61
2022/02/23 03:36:56;;;;;;;2.98;1.20;;;;;;;1.25;100.00;99272.16;1787255;80;21091;-60
2022/02/23 03:39:22;;;;;;;2.25;1.10;;;;;;;1.21;100.00;99271.48;1801199;79;21034;-61
2022/02/23 03:41:49;;;;;;;3.50;1.40;;;;;;;1.14;100.00;99273.41;1751132;81;21052;-60
2022/02/23 03:44:15;;;;;;;3.20;1.30;;;;;;;1.06;100.00;99279.91;1786366;79;21564;-60
2022/02/23 03:46:42;;;;;;;3.47;1.25;;;;;;;0.97;100.00;99280.70;1783493;79;21050;-60
2022/02/23 03:49:09;;;;;;;4.40;1.30;;;;;;;0.93;100.00;99277.33;1745655;81;21091;-60
2022/02/23 03:51:35;;;;;;;3.00;1.32;;;;;;;0.86;100.00;99283.28;1804965;79;21567;-60
2022/02/23 03:54:02;;;;;;;3.55;1.27;;;;;;;0.81;100.00;99283.13;1798730;79;21063;-60
2022/02/23 03:56:42;;;;;;;2.37;1.20;;;;;;;0.74;100.00;99287.73;1801030;79;21082;-60
2022/02/23 03:59:10;;;;;;;3.65;1.70;;;;;;;0.70;100.00;99291.37;1803995;79;21028;-60
2022/02/23 04:01:39;;;;;;;5.42;2.08;;;;;;;0.62;100.00;99292.97;1801477;79;21034;-60
2022/02/23 04:04:06;;;;;;;5.15;1.90;;;;;;;0.56;100.00;99282.31;1784702;79;20997;-60
2022/02/23 04:06:32;;;;;;;6.35;2.20;;;;;;;0.53;100.00;99294.29;1776602;81;21547;-60
2022/02/23 04:09:00;;;;;;;5.67;2.60;;;;;;;0.45;100.00;99291.87;1784207;79;21036;-60
2022/02/23 04:11:27;;;;;;;9.28;2.47;;;;;;;0.39;100.00;99290.07;1788131;79;21488;-60
2022/02/23 04:13:54;;;;;;;5.05;2.85;;;;;;;0.34;100.00;99293.39;1801403;79;21125;-59
2022/02/23 04:16:21;;;;;;;7.75;2.60;;;;;;;0.27;100.00;99295.29;1750681;80;21031;-60
2022/02/23 04:18:47;;;;;;;7.55;3.10;;;;;;;0.18;100.00;99308.61;1773042;81;21035;-59
2022/02/23 04:21:14;;;;;;;5.75;2.77;;;;;;;0.11;100.00;99305.16;1801905;79;21067;-60
2022/02/23 04:23:41;;;;;;;7.17;2.95;;;;;;;0.09;100.00;99310.43;1775332;81;21072;-60
2022/02/23 04:26:08;;;;;;;;;;;;;;;0.05;100.00;99309.21;1805553;79;20975;-60
2022/02/23 04:28:34;;;;;;;7.08;2.75;;;;;;;-0.01;100.00;99309.05;1798075;79;20095;-60
2022/02/23 04:31:01;;;;;;;8.50;2.75;;;;;;;-0.06;100.00;99318.73;1761834;80;21000;-60
2022/02/23 04:33:29;;;;;;;7.05;2.60;;;;;;;-0.15;100.00;99319.52;1775617;80;21645;-60
2022/02/23 04:35:56;;;;;;;6.65;3.00;;;;;;;-0.18;100.00;99324.47;1765610;80;21022;-60
2022/02/23 04:38:22;;;;;;;;;;;;;;;-0.21;100.00;99324.35;1796558;79;21572;-60
2022/02/23 04:40:48;;;;;;;;;;;;;;;-0.25;100.00;99323.67;1778818;80;20132;-60
2022/02/23 04:43:15;;;;;;;;;;;;;;;-0.31;100.00;99328.00;1783771;80;20140;-60
2022/02/23 04:45:41;;;;;;;;;;;;;;;-0.40;100.00;99324.45;1800098;79;20140;-60
2022/02/23 04:48:08;;;;;;;;;;;;;;;-0.43;100.00;99329.70;1805966;79;20090;-59
2022/02/23 04:51:25;;;;;;;6.60;3.08;;;;;;;-0.43;100.00;99334.23;1889138;74;22645;-60
2022/02/23 04:53:56;;;;;;;5.90;2.92;;;;;;;-0.55;100.00;99338.89;1854903;75;21003;-61
2022/02/23 04:56:20;;;;;;;5.65;2.85;;;;;;;-0.56;100.00;99341.25;1756561;80;21389;-60
2022/02/23 04:58:46;;;;;;;7.55;2.62;;;;;;;-0.59;100.00;99344.34;1786917;79;21053;-61
2022/02/23 05:01:13;;;;;;;;;;;;;;;-0.60;100.00;99351.22;1777750;80;21102;-60
2022/02/23 05:03:39;;;;;;;5.10;2.47;;;;;;;-0.61;100.00;99360.30;1793760;79;20112;-60
2022/02/23 05:06:07;;;;;;;4.60;2.35;;;;;;;-0.68;100.00;99356.30;1796558;79;21038;-61
2022/02/23 05:08:33;;;;;;;6.60;2.80;;;;;;;-0.65;100.00;99361.23;1798318;79;21062;-60
2022/02/23 05:11:00;;;;;;;7.87;2.90;;;;;;;-0.66;100.00;99358.75;1791029;79;21021;-61
2022/02/23 05:13:29;;;;;;;10.53;4.50;;;;;;;-0.65;100.00;99356.39;1770556;80;21038;-60
2022/02/23 05:15:57;;;;;;;11.40;4.37;;;;;;;-0.65;100.00;99356.39;1790194;79;21037;-60
2022/02/23 05:18:27;;;;;;;8.90;3.98;;;;;;;-0.63;100.00;99370.36;1769090;80;21041;-60
2022/02/23 05:20:55;;;;;;;11.28;4.55;;;;;;;-0.62;100.00;99370.67;1781547;80;21067;-60
2022/02/23 05:23:22;;;;;;;10.15;4.53;;;;;;;-0.58;100.00;99379.41;1781726;80;21063;-60
2022/02/23 05:25:49;;;;;;;11.45;4.85;;;;;;;-0.58;100.00;99376.73;1775656;80;21003;-60
2022/02/23 05:28:17;;;;;;;16.32;5.35;;;;;;;-0.56;100.00;99373.84;1753611;80;21102;-60
2022/02/23 05:30:44;;;;;;;14.18;5.12;;;;;;;-0.53;100.00;99383.60;1785227;79;21522;-60
2022/02/23 05:33:10;;;;;;;13.53;5.20;;;;;;;-0.50;100.00;99382.38;1801555;79;21206;-61
2022/02/23 05:35:37;;;;;;;12.18;4.97;;;;;;;-0.47;100.00;99381.96;1786073;79;21080;-60
2022/02/23 05:38:03;;;;;;;9.85;4.22;;;;;;;-0.46;100.00;99382.78;1760727;80;21393;-62
2022/02/23 05:40:30;;;;;;;;;;;;;;;-0.41;100.00;99388.31;1794404;79;21047;-61
2022/02/23 05:42:57;;;;;;;10.08;4.87;;;;;;;-0.36;100.00;99393.87;1784407;79;20102;-61
2022/02/23 05:45:24;;;;;;;10.53;4.50;;;;;;;-0.34;100.00;99383.77;1796440;79;21580;-61
2022/02/23 05:47:50;;;;;;;;;;;;;;;-0.30;100.00;99390.34;1802290;77;21043;-60
2022/02/23 05:50:16;;;;;;;9.45;4.65;;;;;;;-0.29;100.00;99391.48;1796110;78;20096;-60
2022/02/23 05:52:45;;;;;;;8.48;4.33;;;;;;;-0.25;100.00;99395.36;1761543;80;21123;-60
2022/02/23 05:55:12;;;;;;;8.15;3.40;;;;;;;-0.16;100.00;99394.62;1768804;80;21095;-61
2022/02/23 05:57:39;;;;;;;6.28;3.80;;;;;;;-0.06;100.00;99401.69;1780858;80;21549;-61
2022/02/23 06:00:08;;;;;;;7.53;3.40;;;;;;;0.03;100.00;99401.77;1790517;80;21554;-60
2022/02/23 06:02:41;;;;;;;8.85;4.15;;;;;;;0.15;100.00;99408.59;1777323;80;21067;-62
2022/02/23 06:05:08;;;;;;;8.98;4.17;;;;;;;0.30;100.00;99409.16;1764505;80;21064;-60
2022/02/23 06:07:36;;;;;;;12.37;4.90;;;;;;;0.55;100.00;99410.05;1786608;80;21590;-60
2022/02/23 06:10:02;;;;;;;;;;;;;;;0.85;100.00;99418.33;1785204;80;21460;-61
2022/02/23 06:12:30;;;;;;;;;;;;;;;1.14;100.00;99422.20;1784996;79;20118;-61
2022/02/23 06:14:57;;;;;;;9.98;4.20;;;;;;;1.37;100.00;99419.24;1774162;79;20108;-60
2022/02/23 06:17:24;;;;;;;11.70;4.55;;;;;;;1.60;100.00;99421.80;1783773;79;20950;-61
2022/02/23 06:19:52;;;;;;;7.58;3.60;;;;;;;1.79;100.00;99422.13;1796204;79;21084;-62
2022/02/23 06:22:18;;;;;;;6.60;3.15;;;;;;;1.98;100.00;99432.64;1787947;79;20966;-62
2022/02/23 06:24:44;;;;;;;7.20;2.90;;;;;;;2.07;100.00;99426.98;1792557;79;21070;-61
2022/02/23 06:27:13;;;;;;;6.67;2.75;;;;;;;2.14;100.00;99424.52;1797768;79;21041;-62
2022/02/23 06:29:41;;;;;;;10.15;2.80;;;;;;;2.24;100.00;99429.34;1796016;79;20995;-62
2022/02/23 06:32:08;;;;;;;5.92;2.25;;;;;;;2.37;100.00;99442.09;1805028;79;21014;-61
2022/02/23 06:34:35;;;;;;;5.35;2.27;;;;;;;2.58;100.00;99441.33;1794132;79;21010;-61
2022/02/23 06:37:03;;;;;;;4.58;2.50;;;;;;;2.67;100.00;99442.64;1794249;79;21479;-62
2022/02/23 06:39:39;;;;;;;4.37;2.08;;;;;;;2.79;100.00;99444.34;1774613;79;21038;-62
2022/02/23 06:42:07;;;;;;;5.58;2.50;;;;;;;2.85;100.00;99438.05;1774009;79;21010;-62
2022/02/23 06:44:34;;;;;;;6.08;2.60;;;;;;;2.89;100.00;99443.78;1769988;79;20987;-61
2022/02/23 06:47:01;;;;;;;;;;;;;;;2.90;100.00;99444.91;1793625;79;21513;-62
2022/02/23 06:49:29;;;;;;;6.12;2.77;;;;;;;3.03;100.00;99438.50;1802567;79;20134;-63
2022/02/23 06:51:58;;;;;;;6.28;2.83;;;;;;;3.22;100.00;99439.25;1784640;79;21109;-62
2022/02/23 06:54:26;;;;;;;4.55;2.37;;;;;;;3.39;100.00;99442.91;1789270;79;21101;-63
2022/02/23 06:56:53;;;;;;;3.98;1.80;;;;;;;3.58;100.00;99442.28;1801822;79;21576;-62
2022/02/23 06:59:19;;;;;;;3.65;1.92;;;;;;;3.68;100.00;99439.82;1804358;79;21561;-62
2022/02/23 07:01:46;;;;;;;4.87;2.40;;;;;;;3.80;100.00;99449.52;1802846;79;21540;-62
2022/02/23 07:04:12;;;;;;;3.55;2.20;;;;;;;3.76;100.00;99442.96;1803512;79;21081;-62
2022/02/23 07:06:41;;;;;;;;;;;;;;;3.67;100.00;99444.38;1801919;79;21045;-61
2022/02/23 07:09:08;;;;;;;3.95;1.90;;;;;;;3.77;100.00;99454.55;1805208;79;20122;-62
2022/02/23 07:11:37;;;;;;;3.85;1.95;;;;;;;3.77;100.00;99449.99;1787938;79;21045;-62
2022/02/23 07:14:04;;;;;;;4.17;2.30;;;;;;;3.85;100.00;99451.52;1773584;81;21026;-62
2022/02/23 07:16:30;;;;;;;4.33;2.02;;;;;;;3.85;100.00;99450.17;1799904;79;20997;-62
2022/02/23 07:18:57;;;;;;;4.45;1.87;;;;;;;3.95;100.00;99461.99;1800871;79;20998;-63
2022/02/23 07:21:23;;;;;;;3.75;2.25;;;;;;;4.10;100.00;99460.69;1774665;79;21072;-62
2022/02/23 07:23:50;;;;;;;3.62;1.62;;;;;;;4.11;100.00;99464.47;1788115;79;21033;-62
2022/02/23 07:26:17;;;;;;;4.67;2.05;;;;;;;4.22;100.00;99462.30;1801005;79;21022;-63
2022/02/23 07:28:49;;;;;;;4.10;2.37;;;;;;;4.46;100.00;99463.88;1803212;79;21046;-62
2022/02/23 07:31:14;;;;;;;4.50;2.50;;;;;;;4.87;100.00;99468.73;1774001;79;21042;-62
2022/02/23 07:33:42;;;;;;;4.65;2.30;;;;;;;5.01;100.00;99458.75;1792398;79;21026;-62
2022/02/23 07:36:08;;;;;;;;;;;;;;;5.16;100.00;99473.58;1794954;79;21057;-63
2022/02/23 07:38:37;;;;;;;3.58;1.60;;;;;;;5.23;100.00;99479.11;1794277;79;20397;-62
2022/02/23 07:41:04;;;;;;;4.17;2.00;;;;;;;5.08;100.00;99476.13;1790922;79;21097;-63
2022/02/23 07:43:30;;;;;;;4.12;1.98;;;;;;;5.09;100.00;99471.56;1789969;79;21029;-63
2022/02/23 07:45:58;;;;;;;4.05;1.55;;;;;;;5.07;100.00;99484.45;1800330;79;21049;-62
2022/02/23 07:48:24;;;;;;;3.58;1.92;;;;;;;4.89;100.00;99485.47;1798029;79;21089;-62
2022/02/23 07:50:52;;;;;;;4.33;1.82;;;;;;;4.89;100.00;99486.30;1796214;79;21052;-62
2022/02/23 07:53:18;;;;;;;4.03;1.95;;;;;;;5.01;100.00;99484.38;1798078;79;21449;-62
2022/02/23 07:55:45;;;;;;;2.83;1.70;;;;;;;5.19;100.00;99487.92;1800975;78;20980;-61
2022/02/23 07:58:11;;;;;;;3.85;1.75;;;;;;;5.42;99.40;99481.06;1815360;79;21073;-62
2022/02/23 08:00:39;;;;;;;3.95;1.60;;;;;;;5.43;94.39;99488.91;1793560;79;21017;-62
2022/02/23 08:03:06;;;;;;;3.22;1.67;;;;;;;5.50;97.26;99490.09;1783370;79;21066;-62
2022/02/23 08:05:33;;;;;;;4.15;1.32;;;;;;;5.58;92.35;99492.39;1772000;79;21051;-61
2022/02/23 08:08:00;;;;;;;3.05;1.52;;;;;;;5.32;89.40;99485.73;1771276;80;21074;-61
2022/02/23 08:10:27;;;;;;;3.25;1.62;;;;;;;5.10;93.37;99489.39;1797322;79;21065;-61
2022/02/23 08:12:58;;;;;;;4.92;1.90;;;;;;;4.98;97.21;99476.77;1799632;79;21045;-61
2022/02/23 08:20:52;;;;;;;4.25;1.87;;;;;;;5.24;95.75;99470.48;1777833;80;21075;-62
2022/02/23 08:23:19;;;;;;;3.33;1.80;;;;;;;5.28;99.84;99470.30;1773295;80;21062;-61
2022/02/23 08:25:45;;;;;;;4.55;1.75;;;;;;;5.43;94.85;99470.53;1781182;80;21079;-61
2022/02/23 08:28:12;;;;;;;2.72;1.72;;;;;;;5.49;90.99;99469.58;1777510;80;21055;-62
2022/02/23 08:30:38;;;;;;;3.22;1.55;;;;;;;5.71;87.13;99467.75;1781184;78;21062;-61
2022/02/23 08:33:05;;;;;;;2.52;1.47;;;;;;;5.99;79.58;99477.65;1773521;80;21042;-61
2022/02/23 08:35:32;;;;;;;;;;;;;;;5.97;76.76;99466.28;1761677;80;21500;-61
2022/02/23 08:37:58;;;;;;;3.77;1.87;;;;;;;6.13;80.09;99469.47;1789657;79;20102;-62
2022/02/23 08:40:26;;;;;;;3.17;2.10;;;;;;;6.23;79.11;99468.81;1762117;80;21095;-61
2022/02/23 08:42:54;;;;;;;4.20;2.00;;;;;;;6.51;77.80;99475.41;1795973;79;21609;-61
2022/02/23 08:45:20;;;;;;;3.75;1.82;;;;;;;6.62;73.43;99470.94;1772086;80;21463;-61
2022/02/23 08:47:46;;;;;;;4.55;2.10;;;;;;;6.62;70.70;99473.11;1769893;80;21054;-62
2022/02/23 08:50:13;;;;;;;3.47;1.92;;;;;;;6.62;70.70;99473.11;1789030;79;21487;-61
2022/02/23 08:52:39;;;;;;;3.30;2.10;;;;;;;6.79;70.45;99474.38;1781634;80;21093;-60
2022/02/23 08:55:08;;;;;;;;;;;;;;;6.97;69.60;99471.34;1781055;79;21034;-60
2022/02/23 08:57:35;;;;;;;3.83;2.12;;;;;;;7.39;69.39;99471.47;1773907;80;20120;-60
2022/02/23 09:00:02;;;;;;;;;;;;;;;7.40;64.71;99474.47;1794553;79;21441;-61
2022/02/23 09:02:29;;;;;;;3.65;2.20;;;;;;;7.34;62.80;99472.77;1779805;79;20139;-62
2022/02/23 09:04:55;;;;;;;;;;;;;;;6.88;62.73;99460.14;1787540;79;20981;-62
2022/02/23 09:07:22;;;;;;;4.25;2.10;;;;;;;6.66;65.03;99473.42;1762441;80;20142;-62
2022/02/23 09:09:49;;;;;;;4.67;2.35;;;;;;;6.34;66.73;99474.09;1775830;80;20992;-62
2022/02/23 09:12:15;;;;;;;4.80;2.15;;;;;;;6.37;69.92;99472.26;1777779;80;20955;-61
2022/02/23 09:14:43;;;;;;;;;;;;;;;6.66;71.14;99474.78;1762856;79;20940;-61
2022/02/23 09:17:09;;;;;;;3.40;1.67;;;;;;;6.82;66.14;99479.28;1778830;79;20108;-61
2022/02/23 09:19:36;;;;;;;3.33;1.92;;;;;;;6.81;65.47;99480.34;1762995;79;20999;-62
2022/02/23 09:22:03;;;;;;;3.58;2.20;;;;;;;6.81;65.55;99483.88;1775347;80;21027;-61
2022/02/23 09:24:29;;;;;;;;;;;;;;;6.85;64.34;99482.83;1777627;79;21548;-63
2022/02/23 09:26:56;;;;;;;3.67;1.92;;;;;;;6.89;63.97;99476.66;1778725;80;20096;-62
2022/02/23 09:29:24;;;;;;;2.98;1.77;;;;;;;6.86;62.76;99481.23;1775153;79;21455;-62
2022/02/23 09:31:51;;;;;;;3.12;1.67;;;;;;;6.82;60.64;99480.10;1767162;80;21556;-61
2022/02/23 09:34:19;;;;;;;4.22;1.70;;;;;;;6.87;62.47;99480.70;1772237;79;21466;-61
2022/02/23 09:36:45;;;;;;;2.67;1.50;;;;;;;7.34;62.47;99478.19;1771895;79;21561;-61
2022/02/23 09:39:12;;;;;;;2.80;1.50;;;;;;;7.75;57.89;99478.83;1766119;80;21518;-61
2022/02/23 09:41:39;;;;;;;;;;;;;;;7.95;55.88;99474.08;1769711;80;21459;-63
2022/02/23 09:44:05;;;;;;;2.77;1.63;;;;;;;8.11;53.57;99464.16;1774612;80;20399;-62
2022/02/23 09:46:33;;;;;;;3.75;1.80;;;;;;;7.92;54.40;99467.30;1770623;80;21437;-61
2022/02/23 09:49:00;;;;;;;3.65;1.90;;;;;;;8.08;54.25;99474.97;1734982;82;21074;-62
2022/02/23 09:51:26;;;;;;;;;;;;;;;8.05;53.16;99485.52;1759707;80;21036;-62
2022/02/23 09:53:55;;;;;;;4.10;1.67;;;;;;;7.79;53.72;99479.12;1808666;79;20104;-62
2022/02/23 09:56:26;;;;;;;3.40;1.82;;;;;;;7.92;55.29;99482.73;1812035;78;21121;-62
2022/02/23 09:58:55;;;;;;;3.80;1.70;;;;;;;8.26;54.04;99479.96;1793568;79;21039;-62
2022/02/23 10:01:25;;;;;;;2.42;1.50;;;;;;;8.29;52.48;99478.11;1769857;80;21034;-63
2022/02/23 10:03:53;;;;;;;3.27;1.70;;;;;;;8.59;53.09;99472.03;1808641;79;21044;-62
2022/02/23 10:06:21;;;;;;;4.03;1.60;;;;;;;8.61;50.14;99473.92;1816283;79;21503;-61
2022/02/23 10:08:48;;;;;;;2.45;1.40;;;;;;;8.33;49.96;99476.50;1786028;80;21063;-61
2022/02/23 10:11:18;;;;;;;3.08;1.57;;;;;;;8.10;50.52;99482.86;1716608;80;21061;-61
2022/02/23 10:13:51;;;;;;;3.50;1.80;;;;;;;7.91;50.26;99486.52;1786403;79;21007;-63
2022/02/23 10:16:18;;;;;;;3.83;1.80;;;;;;;7.77;51.79;99483.97;1814237;79;20998;-62
2022/02/23 10:18:45;;;;;;;;;;;;;;;7.66;51.66;99483.08;1810822;79;20984;-61
2022/02/23 10:21:11;;;;;;;3.87;1.70;;;;;;;7.55;52.65;99484.59;1791631;79;20428;-62
2022/02/23 10:23:37;;;;;;;;;;;;;;;7.40;53.87;99490.16;1808928;79;21922;-62
2022/02/23 10:26:12;;;;;;;3.12;1.60;;;;;;;7.27;53.41;99482.46;1813534;78;20102;-63
2022/02/23 10:28:37;;;;;;;4.50;1.90;;;;;;;7.04;53.55;99481.95;1812268;79;21058;-62
2022/02/23 10:31:10;;;;;;;4.33;2.40;;;;;;;6.90;54.80;99481.55;1779914;80;20979;-62
2022/02/23 10:33:39;;;;;;;3.42;1.67;;;;;;;6.82;55.04;99477.93;1797373;79;21026;-62
2022/02/23 10:36:15;;;;;;;2.77;1.55;;;;;;;6.71;56.42;99479.70;1801759;77;21037;-62
2022/02/23 10:38:47;;;;;;;2.55;1.60;;;;;;;6.52;55.58;99477.02;1792104;79;21042;-62
2022/02/23 10:41:31;;;;;;;3.27;1.65;;;;;;;6.37;56.32;99475.49;1777000;80;21514;-62
2022/02/23 10:43:59;;;;;;;4.20;1.80;;;;;;;6.19;56.21;99470.38;1799864;79;21066;-62
2022/02/23 10:46:26;;;;;;;3.60;1.82;;;;;;;6.04;56.79;99470.98;1800872;79;21109;-63
2022/02/23 10:48:59;;;;;;;3.90;1.80;;;;;;;5.94;58.44;99477.06;1787101;79;21108;-60
2022/02/23 10:51:37;;;;;;;3.42;1.65;;;;;;;5.93;61.94;99479.47;1796683;79;22377;-62
2022/02/23 10:54:11;;;;;;;3.90;1.92;;;;;;;6.04;60.29;99479.61;1792644;80;21525;-62
2022/02/23 10:56:42;;;;;;;3.20;1.50;;;;;;;6.05;60.42;99481.27;1785841;80;21578;-62
2022/02/23 10:59:12;;;;;;;3.50;1.50;;;;;;;6.00;60.17;99480.12;1794912;80;21383;-64
2022/02/23 11:01:40;;;;;;;3.55;2.00;;;;;;;5.94;62.35;99478.95;1794015;80;21567;-63
2022/02/23 11:04:07;;;;;;;3.35;1.57;;;;;;;5.93;63.58;99463.27;1789724;80;21113;-62
2022/02/23 11:06:35;;;;;;;3.12;1.80;;;;;;;6.16;63.02;99475.76;1785777;80;20986;-62
2022/02/23 11:09:02;;;;;;;4.22;1.87;;;;;;;6.10;60.43;99471.86;1786834;80;21023;-62
2022/02/23 11:11:28;;;;;;;3.50;2.00;;;;;;;6.03;59.98;99464.45;1791080;79;21022;-61
2022/02/23 11:14:01;;;;;;;4.92;2.00;;;;;;;5.84;59.95;99470.66;1781413;80;21134;-62
2022/02/23 11:16:30;;;;;;;4.10;1.92;;;;;;;5.69;61.82;99467.19;1791531;79;21041;-61
2022/02/23 11:18:59;;;;;;;3.47;1.87;;;;;;;5.71;64.03;99463.70;1780824;80;21114;-62
2022/02/23 11:21:29;;;;;;;4.10;1.92;;;;;;;5.75;64.12;99448.64;1774938;80;21335;-62
2022/02/23 11:24:03;;;;;;;4.40;1.85;;;;;;;6.01;65.01;99470.13;1769530;80;21510;-61
2022/02/23 11:26:32;;;;;;;4.55;2.10;;;;;;;6.04;61.21;99457.47;1769691;79;21436;-62
2022/02/23 11:29:12;;;;;;;4.08;1.62;;;;;;;5.90;60.42;99458.36;1738354;80;21109;-62
2022/02/23 11:31:38;;;;;;;3.50;1.52;;;;;;;5.82;62.44;99460.62;1773198;80;20952;-61
2022/02/23 11:34:09;;;;;;;;;;;;;;;5.84;62.83;99455.27;1786084;78;21854;-61
2022/02/23 11:36:47;;;;;;;3.98;1.90;;;;;;;5.94;63.11;99455.98;1781553;79;20115;-61
2022/02/23 11:39:18;;;;;;;;;;;;;;;5.90;62.13;99453.48;1765382;80;21457;-62
2022/02/23 11:41:52;;;;;;;4.97;1.90;;;;;;;5.95;64.46;99455.71;1786412;78;20538;-62
2022/02/23 11:52:06;;;;;;;3.47;1.82;;;;;;;6.21;67.93;99443.38;1776231;79;22944;-62
2022/02/23 11:55:05;;;;;;;4.37;2.12;;;;;;;6.27;69.37;99447.77;1747118;80;20973;-61
2022/02/23 11:57:51;;;;;;;4.40;2.00;;;;;;;6.44;69.69;99441.80;1752420;81;21063;-62